No particular awareness of the weather is required.    There are no Weather-warnings


Meteo18 Weather Cam more information Meteo18 Weather Cam


Thunder radar more information blitzortung!


Rain radar more information rain snow radar


Visit our other weather sites:

Template documentation
and downloads

And another site



Weather Underground History page Text

Daily Summary for July 31, 2017 Units:  Metric    English   Both
« Previous Day
Next Day »
Daily Weekly Monthly Yearly Custom
  High: Low: Average:
Temperature: -17.8 °C -9.9 °C -6.7 °C
Dew Point: -17.8 °C -11 °C -9.8 °C
Humidity: Humidity % 54 % 71 %
Wind Speed: 0 km/h 0 km/h 6.6 km/h
Wind Gust: 0 km/h - -
Wind:- - SSE
Pressure: 0 hPa 34293.4 hPa -
Precipitation: 419.1 mm    
Historical Graphs
 
 
Tabular Data for July 31, 2017
Time Temperature Dew Point Pressure Wind Wind Speed Wind Gust Humidity Rainfall Rate (Hourly)
-17.8 °C -17.8 °C 0 hPa Calm     Humidity % 0 mm
00:02 -6.8 °C -9.9 °C 34395 hPa SSW 2.6 km/h 10.3 km/h 70 % 0 mm
00:12 -7 °C -10 °C 34395 hPa South 7.7 km/h 10.3 km/h 71 % 0 mm
00:17 -7.1 °C -10.1 °C 34405.1 hPa SSW 5.1 km/h 12.9 km/h 71 % 0 mm
00:22 -7.1 °C -10.2 °C 34405.1 hPa SW 5.1 km/h 12.9 km/h 70 % 0 mm
00:32 -7.1 °C -10.2 °C 34405.1 hPa SSW 2.6 km/h 12.9 km/h 70 % 0 mm
00:37 -7 °C -10.1 °C 34405.1 hPa SW 5.1 km/h 12.9 km/h 70 % 0 mm
00:47 -7.1 °C -10.2 °C 34405.1 hPa Calm   10.3 km/h 70 % 0 mm
00:52 -7.1 °C -10.1 °C 34405.1 hPa Calm   10.3 km/h 71 % 0 mm
01:02 -7.3 °C -10.2 °C 34418.7 hPa Calm   5.1 km/h 72 % 0 mm
01:09 -7.3 °C -10.2 °C 34418.7 hPa Calm     72 % 0 mm
01:17 -7.3 °C -10.3 °C 34418.7 hPa WSW 2.6 km/h 2.6 km/h 71 % 0 mm
01:22 -7.3 °C -10.3 °C 34405.1 hPa Calm   5.1 km/h 71 % 0 mm
01:32 -7.3 °C -10.3 °C 34405.1 hPa Calm   5.1 km/h 71 % 0 mm
01:42 -7.4 °C -10.2 °C 34405.1 hPa Calm   2.6 km/h 73 % 0 mm
01:52 -7.7 °C -10.3 °C 34405.1 hPa Calm   2.6 km/h 74 % 0 mm
02:02 -7.7 °C -10.3 °C 34405.1 hPa SE 2.6 km/h 5.1 km/h 74 % 0 mm
02:07 -7.7 °C -10.3 °C 34405.1 hPa Calm   5.1 km/h 74 % 0 mm
02:12 -7.8 °C -10.4 °C 34405.1 hPa Calm   5.1 km/h 74 % 0 mm
02:17 -7.8 °C -10.3 °C 34405.1 hPa Calm   2.6 km/h 75 % 0 mm
02:22 -7.9 °C -10.2 °C 34405.1 hPa Calm   2.6 km/h 77 % 0 mm
02:27 -8.1 °C -10.3 °C 34405.1 hPa Calm   2.6 km/h 78 % 0 mm
02:32 -8.2 °C -10.2 °C 34405.1 hPa Calm     79 % 0 mm
02:42 -8 °C -10.3 °C 34405.1 hPa Calm   2.6 km/h 77 % 0 mm
02:52 -7.9 °C -10.3 °C 34405.1 hPa Calm   5.1 km/h 76 % 0 mm
02:57 -8 °C -10.3 °C 34405.1 hPa Calm   2.6 km/h 77 % 0 mm
03:02 -8.1 °C -10.4 °C 34405.1 hPa Calm   2.6 km/h 77 % 0 mm
03:12 -8.2 °C -10.3 °C 34395 hPa Calm   2.6 km/h 78 % 0 mm
03:17 -8.2 °C -10.5 °C 34395 hPa Calm   2.6 km/h 77 % 0 mm
03:22 -8.3 °C -10.4 °C 34395 hPa Calm   2.6 km/h 78 % 0 mm
03:32 -8.2 °C -10.5 °C 34395 hPa Calm   7.7 km/h 77 % 0 mm
03:42 -8.2 °C -10.4 °C 34384.8 hPa West 2.6 km/h 7.7 km/h 77 % 0 mm
03:47 -8.2 °C -10.5 °C 34384.8 hPa WNW 5.1 km/h 7.7 km/h 77 % 0 mm
03:52 -8.2 °C -10.5 °C 34384.8 hPa WNW 5.1 km/h 7.7 km/h 77 % 0 mm
03:57 -8.2 °C -10.5 °C 34384.8 hPa Calm   7.7 km/h 77 % 0 mm
04:02 -8.2 °C -10.5 °C 34384.8 hPa WNW 5.1 km/h 10.3 km/h 77 % 0 mm
04:12 -8.1 °C -10.5 °C 34384.8 hPa NE 5.1 km/h 10.3 km/h 76 % 0 mm
04:17 -8.2 °C -10.6 °C 34395 hPa ESE 5.1 km/h 12.9 km/h 76 % 0 mm
04:22 -8.2 °C -10.6 °C 34384.8 hPa Calm   12.9 km/h 76 % 0 mm
04:32 -8.5 °C -10.6 °C 34384.8 hPa Calm   10.3 km/h 79 % 0 mm
04:42 -8.8 °C -10.7 °C 34395 hPa Calm   10.3 km/h 80 % 0 mm
04:47 -8.9 °C -10.7 °C 34395 hPa Calm   7.7 km/h 82 % 0 mm
04:52 -9.1 °C -10.7 °C 34395 hPa Calm   2.6 km/h 83 % 0 mm
04:57 -9.1 °C -10.7 °C 34395 hPa Calm   2.6 km/h 83 % 0 mm
05:02 -9.1 °C -10.7 °C 34384.8 hPa Calm   2.6 km/h 83 % 0 mm
05:12 -8.9 °C -10.7 °C 34384.8 hPa Calm   2.6 km/h 82 % 0 mm
05:17 -9.1 °C -10.8 °C 34395 hPa WNW 2.6 km/h 2.6 km/h 82 % 0 mm
05:22 -9.3 °C -10.8 °C 34395 hPa Calm   5.1 km/h 84 % 0 mm
05:32 -9.3 °C -10.7 °C 34395 hPa Calm   5.1 km/h 85 % 0 mm
05:37 -9.4 °C -10.8 °C 34405.1 hPa Calm   5.1 km/h 85 % 0 mm
05:42 -9.3 °C -10.7 °C 34395 hPa Calm   2.6 km/h 85 % 0 mm
05:52 -9.4 °C -10.8 °C 34405.1 hPa Calm     85 % 0 mm
05:57 -9.5 °C -10.9 °C 34405.1 hPa Calm     85 % 0 mm
06:02 -9.6 °C -10.8 °C 34395 hPa Calm     86 % 0 mm
06:12 -9.6 °C -10.8 °C 34405.1 hPa Calm     86 % 0 mm
06:17 -9.6 °C -10.9 °C 34405.1 hPa Calm   2.6 km/h 86 % 0 mm
06:22 -9.7 °C -10.8 °C 34395 hPa Calm   2.6 km/h 87 % 0 mm
06:32 -9.8 °C -10.9 °C 34405.1 hPa Calm   2.6 km/h 87 % 0 mm
06:42 -9.8 °C -10.9 °C 34405.1 hPa Calm   2.6 km/h 88 % 0 mm
06:47 -9.8 °C -10.9 °C 34405.1 hPa Calm   2.6 km/h 88 % 0 mm
06:52 -9.9 °C -11 °C 34405.1 hPa Calm   5.1 km/h 88 % 0 mm
07:02 -9.9 °C -10.9 °C 34405.1 hPa Calm   2.6 km/h 89 % 0 mm
07:12 -9.9 °C -10.9 °C 34405.1 hPa Calm   2.6 km/h 89 % 0 mm
07:17 -9.8 °C -10.8 °C 34395 hPa NNW 5.1 km/h 5.1 km/h 89 % 0 mm
07:22 -9.6 °C -10.6 °C 34395 hPa Calm   5.1 km/h 89 % 0 mm
07:32 -9.3 °C -10.6 °C 34395 hPa North 5.1 km/h 10.3 km/h 87 % 0 mm
07:42 -9.2 °C -10.4 °C 34384.8 hPa Calm   10.3 km/h 86 % 0 mm
07:52 -8.8 °C -10.2 °C 34384.8 hPa Calm   12.9 km/h 85 % 0 mm
07:57 -8.7 °C -10.2 °C 34395 hPa Calm   10.3 km/h 84 % 0 mm
08:02 -8.4 °C -10 °C 34395 hPa Calm   10.3 km/h 83 % 0 mm
08:07 -8.2 °C -10 °C 34405.1 hPa Calm   5.1 km/h 81 % 0 mm
08:12 -8.1 °C -9.9 °C 34405.1 hPa Calm   5.1 km/h 81 % 0 mm
08:17 -8.1 °C -9.9 °C 34395 hPa Calm     81 % 0 mm
08:22 -8.1 °C -9.8 °C 34395 hPa Calm     82 % 0 mm
08:32 -7.9 °C -9.9 °C 34405.1 hPa Calm     80 % 0 mm
08:37 -7.9 °C -9.9 °C 34418.7 hPa Calm     79 % 0 mm
08:42 -7.9 °C -9.9 °C 34428.8 hPa Calm     80 % 0 mm
08:52 -7.9 °C -9.9 °C 34405.1 hPa Calm     80 % 0 mm
09:02 -7.8 °C -9.9 °C 34384.8 hPa NNE 10.3 km/h   78 % 0 mm
09:12 -7.7 °C -9.9 °C 34395 hPa ENE 5.1 km/h 15.6 km/h 77 % 0 mm
09:17 -7.7 °C -10.1 °C 34395 hPa NE 7.7 km/h 15.6 km/h 76 % 0 mm
09:22 -7.6 °C -10.1 °C 34395 hPa NNE 12.9 km/h 15.6 km/h 75 % 0 mm
09:32 -7.6 °C -10.2 °C 34405.1 hPa NNE 7.7 km/h 18.2 km/h 74 % 0 mm
09:42 -7.4 °C -10.2 °C 34418.7 hPa ENE 7.7 km/h 15.6 km/h 73 % 0 mm
09:47 -7.3 °C -10.2 °C 34405.1 hPa NNE 7.7 km/h 15.6 km/h 72 % 0 mm
09:52 -7.3 °C -10.2 °C 34395 hPa NE 7.7 km/h 12.9 km/h 72 % 0 mm
10:02 -7.3 °C -10.3 °C 34395 hPa ENE 7.7 km/h 15.6 km/h 71 % 0 mm
10:12 -7.2 °C -10 °C 34428.8 hPa Calm   18.2 km/h 73 % 0 mm
10:17 -7.1 °C -10.3 °C 34418.7 hPa ESE 2.6 km/h 18.2 km/h 69 % 0 mm
10:22 -7 °C -10.1 °C 34418.7 hPa ENE 7.7 km/h 10.3 km/h 70 % 0 mm
10:32 -7.1 °C -10.2 °C 34405.1 hPa ENE 10.3 km/h 20.8 km/h 70 % 0 mm
10:37 -7.1 °C -10.1 °C 34418.7 hPa East 2.6 km/h 20.8 km/h 71 % 0 mm
10:42 -6.9 °C -9.9 °C 34418.7 hPa ENE 5.1 km/h 20.8 km/h 71 % 0 mm
10:52 -6.5 °C -9.9 °C 34405.1 hPa Calm   10.3 km/h 68 % 0 mm
10:57 -6.4 °C -9.8 °C 34405.1 hPa NE 5.1 km/h 10.3 km/h 68 % 0 mm
11:02 -6.4 °C -9.8 °C 34405.1 hPa ENE 2.6 km/h 10.3 km/h 68 % 0 mm
11:12 -6.6 °C -10 °C 34384.8 hPa Calm   10.3 km/h 68 % 0 mm
11:22 -6.5 °C -10 °C 34384.8 hPa ENE 5.1 km/h 20.8 km/h 67 % 0 mm
11:32 -6.3 °C -9.9 °C 34384.8 hPa East 15.6 km/h 18.2 km/h 66 % 0 mm
11:42 -6.3 °C -10.3 °C 34384.8 hPa ENE 2.6 km/h 20.8 km/h 63 % 0 mm
11:52 -6.2 °C -10.2 °C 34384.8 hPa NE 10.3 km/h 20.8 km/h 64 % 0 mm
11:57 -6.1 °C -10.1 °C 34371.3 hPa NNE 2.6 km/h 20.8 km/h 63 % 0 mm
12:02 -5.9 °C -9.9 °C 34384.8 hPa ENE 5.1 km/h 20.8 km/h 63 % 0 mm
12:12 -5.7 °C -9.9 °C 34371.3 hPa NE 18.2 km/h 25.9 km/h 62 % 0 mm
12:17 -5.7 °C -10.1 °C 34371.3 hPa ENE 7.7 km/h 25.9 km/h 61 % 0 mm
12:22 -5.7 °C -10.1 °C 34371.3 hPa NNE 12.9 km/h 25.9 km/h 61 % 0 mm
12:27 -5.8 °C -10.1 °C 34371.3 hPa NNW 12.9 km/h 25.9 km/h 61 % 0 mm
12:32 -5.7 °C -9.7 °C 34371.3 hPa NE 15.6 km/h 25.9 km/h 64 % 0 mm
12:42 -5.9 °C -9.6 °C 34384.8 hPa East 2.6 km/h 25.9 km/h 66 % 0 mm
12:47 -5.9 °C -9.4 °C 34384.8 hPa SSE 2.6 km/h 25.9 km/h 67 % 0 mm
12:52 -5.8 °C -9.3 °C 34371.3 hPa ESE 7.7 km/h 20.8 km/h 67 % 0 mm
13:02 -5.7 °C -9.3 °C 34371.3 hPa ESE 12.9 km/h 20.8 km/h 67 % 0 mm
13:12 -5.7 °C -9.4 °C 34371.3 hPa NE 7.7 km/h 15.6 km/h 66 % 0 mm
13:17 -5.7 °C -9.6 °C 34371.3 hPa ENE 2.6 km/h 20.8 km/h 65 % 0 mm
13:22 -5.7 °C -9.6 °C 34371.3 hPa SSE 2.6 km/h 20.8 km/h 65 % 0 mm
13:32 -5.8 °C -9.6 °C 34371.3 hPa East 5.1 km/h 20.8 km/h 65 % 0 mm
13:42 -5.6 °C -9.4 °C 34361.1 hPa East 7.7 km/h 18.2 km/h 65 % 0 mm
13:52 -5.4 °C -9.5 °C 34361.1 hPa North 20.8 km/h 23.3 km/h 63 % 0 mm
13:57 -5.2 °C -9.3 °C 34347.6 hPa NE 5.1 km/h 31.1 km/h 63 % 0 mm
14:02 -4.9 °C -9.4 °C 34347.6 hPa NNE 7.7 km/h 31.1 km/h 60 % 0 mm
14:12 -5.1 °C -9.3 °C 34347.6 hPa ENE 15.6 km/h 25.9 km/h 62 % 0 mm
14:17 -4.9 °C -9.3 °C 34347.6 hPa ENE 7.7 km/h 25.9 km/h 61 % 0 mm
14:22 -4.9 °C -9.4 °C 34347.6 hPa ENE 10.3 km/h 25.9 km/h 60 % 0 mm
14:32 -4.8 °C -9.6 °C 34347.6 hPa NE 10.3 km/h 25.9 km/h 59 % 0 mm
14:42 -4.8 °C -9.5 °C 34347.6 hPa NNW 5.1 km/h 25.9 km/h 59 % 0 mm
14:47 -4.7 °C -9.4 °C 34347.6 hPa Calm   25.9 km/h 59 % 0 mm
14:52 -4.6 °C -9.3 °C 34347.6 hPa East 5.1 km/h 25.9 km/h 59 % 0 mm
15:02 -4.4 °C -9.3 °C 34347.6 hPa NE 15.6 km/h 20.8 km/h 58 % 0 mm
15:07 -4.3 °C -9.3 °C 34337.4 hPa NE 7.7 km/h 25.9 km/h 57 % 0 mm
15:12 -4.2 °C -9.4 °C 34337.4 hPa NNW 2.6 km/h 25.9 km/h 56 % 0 mm
15:22 -4.1 °C -9.3 °C 34337.4 hPa East 12.9 km/h 25.9 km/h 56 % 0 mm
15:27 -4 °C -9.4 °C 34337.4 hPa NE 15.6 km/h 23.3 km/h 55 % 0 mm
15:37 -4.1 °C -9.3 °C 34337.4 hPa NNE 10.3 km/h 25.9 km/h 56 % 0 mm
15:42 -4.1 °C -9.3 °C 34327.3 hPa ESE 7.7 km/h 25.9 km/h 56 % 0 mm
15:52 -3.9 °C -9.3 °C 34327.3 hPa NE 7.7 km/h 18.2 km/h 55 % 0 mm
15:57 -3.8 °C -9.2 °C 34327.3 hPa Calm   18.2 km/h 55 % 0 mm
16:02 -3.7 °C -9.1 °C 34313.7 hPa NNE 15.6 km/h 18.2 km/h 55 % 0 mm
16:12 -3.7 °C -9.1 °C 34313.7 hPa NNW 10.3 km/h 23.3 km/h 55 % 0 mm
16:17 -3.6 °C -9.2 °C 34313.7 hPa NNE 28.5 km/h 28.5 km/h 54 % 0 mm
16:22 -3.7 °C -8.9 °C 34303.6 hPa NE 12.9 km/h 28.5 km/h 56 % 0 mm
16:32 -3.7 °C -8.9 °C 34303.6 hPa NNE 12.9 km/h 31.1 km/h 56 % 0 mm
16:42 -3.7 °C -8.9 °C 34313.7 hPa NNE 10.3 km/h 31.1 km/h 56 % 0 mm
16:52 -3.6 °C -9.1 °C 34303.6 hPa NE 7.7 km/h 20.8 km/h 54 % 0 mm
16:57 -3.7 °C -8.7 °C 34303.6 hPa NE 18.2 km/h 28.5 km/h 57 % 0 mm
17:02 -3.8 °C -9 °C 34303.6 hPa NNW 5.1 km/h 31.1 km/h 56 % 0 mm
17:12 -3.8 °C -8.8 °C 34303.6 hPa NNE 10.3 km/h 31.1 km/h 57 % 0 mm
17:17 -3.8 °C -8.7 °C 34303.6 hPa North 5.1 km/h 33.6 km/h 58 % 0 mm
17:22 -3.7 °C -8.9 °C 34303.6 hPa NNE 20.8 km/h 33.6 km/h 56 % 0 mm
17:32 -3.8 °C -8.7 °C 34303.6 hPa NNW 7.7 km/h 25.9 km/h 58 % 0 mm
17:42 -4 °C -8.8 °C 34293.4 hPa NNE 20.8 km/h 38.8 km/h 59 % 0 mm
17:52 -4.1 °C -8.8 °C 34293.4 hPa NNE 7.7 km/h 33.6 km/h 59 % 0 mm
17:57 -4 °C -8.8 °C 34293.4 hPa NW 12.9 km/h 31.1 km/h 59 % 0 mm
18:02 -4 °C -8.6 °C 34293.4 hPa NNE 28.5 km/h 31.1 km/h 60 % 0 mm
18:12 -4.1 °C -8.7 °C 34293.4 hPa NE 15.6 km/h 31.1 km/h 60 % 0 mm
18:17 -4.1 °C -8.7 °C 34293.4 hPa NNW 10.3 km/h 31.1 km/h 60 % 0 mm
18:22 -4.1 °C -8.7 °C 34293.4 hPa NNW 12.9 km/h 31.1 km/h 60 % 0 mm
18:32 -4.2 °C -8.7 °C 34293.4 hPa NW 7.7 km/h 28.5 km/h 61 % 0 mm
18:42 -4.2 °C -8.7 °C 34293.4 hPa NNE 15.6 km/h 31.1 km/h 61 % 0 mm
18:47 -4.3 °C -8.7 °C 34293.4 hPa NNE 12.9 km/h 31.1 km/h 61 % 0 mm
18:52 -4.3 °C -8.6 °C 34293.4 hPa NNW 10.3 km/h 31.1 km/h 62 % 0 mm
19:02 -4.3 °C -8.7 °C 34293.4 hPa NNW 12.9 km/h 31.1 km/h 61 % 0 mm
19:12 -4.2 °C -8.7 °C 34293.4 hPa NE 7.7 km/h 28.5 km/h 61 % 0 mm
19:17 -4.2 °C -8.7 °C 34293.4 hPa North 15.6 km/h 31.1 km/h 61 % 0 mm
19:22 -4.3 °C -8.7 °C 34293.4 hPa West 2.6 km/h 31.1 km/h 61 % 0 mm
19:32 -4.4 °C -8.7 °C 34293.4 hPa NNW 7.7 km/h 31.1 km/h 62 % 0 mm
19:42 -4.4 °C -8.7 °C 34293.4 hPa NW 5.1 km/h 28.5 km/h 62 % 0 mm
19:47 -4.5 °C -8.7 °C 34293.4 hPa NE 10.3 km/h 28.5 km/h 63 % 0 mm
19:52 -4.5 °C -8.7 °C 34293.4 hPa NE 20.8 km/h 28.5 km/h 63 % 0 mm
19:57 -4.5 °C -8.7 °C 34293.4 hPa East 2.6 km/h 23.3 km/h 63 % 0 mm
20:02 -4.5 °C -8.7 °C 34293.4 hPa NW 7.7 km/h 23.3 km/h 63 % 0 mm
20:12 -4.6 °C -8.7 °C 34293.4 hPa NNW 7.7 km/h 23.3 km/h 63 % 0 mm
20:17 -4.6 °C -8.8 °C 34293.4 hPa NE 12.9 km/h 28.5 km/h 63 % 0 mm
20:22 -4.7 °C -8.8 °C 34293.4 hPa NNW 10.3 km/h 28.5 km/h 63 % 0 mm
20:27 -4.8 °C -8.9 °C 34293.4 hPa NNE 15.6 km/h 28.5 km/h 63 % 0 mm
20:32 -4.8 °C -8.9 °C 34293.4 hPa North 18.2 km/h 28.5 km/h 63 % 0 mm
20:37 -4.9 °C -8.9 °C 34293.4 hPa NNW 12.9 km/h 31.1 km/h 64 % 0 mm
20:42 -4.9 °C -8.9 °C 34293.4 hPa North 7.7 km/h 31.1 km/h 64 % 0 mm
20:52 -5.1 °C -8.9 °C 34293.4 hPa NNE 12.9 km/h 25.9 km/h 65 % 0 mm
20:57 -5.1 °C -8.9 °C 34293.4 hPa North 10.3 km/h 20.8 km/h 65 % 0 mm
21:02 -5.2 °C -9 °C 34293.4 hPa NNW 5.1 km/h 20.8 km/h 65 % 0 mm
21:12 -5.3 °C -9 °C 34293.4 hPa NNW 5.1 km/h 20.8 km/h 66 % 0 mm
21:22 -5.4 °C -8.9 °C 34293.4 hPa North 20.8 km/h 20.8 km/h 67 % 0 mm
21:27 -5.4 °C -9 °C 34303.6 hPa NW 2.6 km/h 20.8 km/h 67 % 0 mm
21:32 -5.4 °C -9 °C 34303.6 hPa NNW 10.3 km/h 20.8 km/h 67 % 0 mm
21:42 -5.5 °C -9.1 °C 34303.6 hPa North 10.3 km/h 23.3 km/h 67 % 0 mm
21:47 -5.7 °C -9.1 °C 34293.4 hPa North 15.6 km/h 25.9 km/h 68 % 0 mm
21:52 -5.9 °C -8.9 °C 34337.4 hPa WSW 15.6 km/h 25.9 km/h 71 % 0 mm
22:02 -7.1 °C -8.8 °C 34327.3 hPa WNW 23.3 km/h 33.6 km/h 83 % 12.7 mm
22:12 -7.8 °C -8.8 °C 34337.4 hPa North 7.7 km/h 33.6 km/h 89 % 180.34 mm
22:17 -7.8 °C -8.8 °C 34337.4 hPa NNW 10.3 km/h 25.9 km/h 90 % 193.04 mm
22:22 -7.8 °C -8.8 °C 34347.6 hPa North 10.3 km/h 23.3 km/h 90 % 193.04 mm
22:32 -7.7 °C -8.7 °C 34327.3 hPa WNW 12.9 km/h 15.6 km/h 89 % 193.04 mm
22:42 -7.7 °C -8.7 °C 34327.3 hPa NW 2.6 km/h 20.8 km/h 89 % 193.04 mm
22:52 -7.8 °C -8.8 °C 34361.1 hPa WNW 20.8 km/h 28.5 km/h 89 % 200.66 mm
22:57 -7.8 °C -8.9 °C 34337.4 hPa NNW 7.7 km/h 25.9 km/h 88 % 200.66 mm
23:02 -8 °C -9 °C 34347.6 hPa NNW 15.6 km/h 25.9 km/h 89 % 129.54 mm
23:12 -8.3 °C -9.1 °C 34361.1 hPa NW 7.7 km/h 28.5 km/h 91 % 71.12 mm
23:17 -8.3 °C -9.1 °C 34337.4 hPa NNW 12.9 km/h 28.5 km/h 92 % 121.92 mm
23:22 -8.3 °C -9.1 °C 34327.3 hPa ENE 5.1 km/h 28.5 km/h 92 % 121.92 mm
23:27 -8.3 °C -9.2 °C 34327.3 hPa North 15.6 km/h 23.3 km/h 91 % 121.92 mm
23:32 -8.3 °C -9.1 °C 34327.3 hPa NNW 7.7 km/h 25.9 km/h 91 % 121.92 mm
23:42 -8.3 °C -9.2 °C 34337.4 hPa WNW 28.5 km/h 28.5 km/h 90 % 121.92 mm
23:52 -8.7 °C -9.6 °C 34337.4 hPa NNW 7.7 km/h 36.2 km/h 90 % 154.94 mm
23:57 -8.8 °C -9.6 °C 34327.3 hPa East 12.9 km/h 36.2 km/h 91 % 218.44 mm
Meteo18
Compliments of Weather Underground - 4 mb

Script developed by  Jim McMurry - jmcmurry@mwt.net Adapted for the template by  Wim van der Kuil - Leuven-Template.eu

You find our weather info also at:

European Weather Network

Weather Underground

Equipment we use:

Weather-station
Davis Vue

Weather-program
Meteobridge

Weather-server
Raspberry PI 2 B+

Provider
1 and 1

Davis Vue

Meteobridge

Raspberry PI 2 B+

1 and 1